Time;durP1;ratioP1;P1;durP2;ratioP2;P2;SDS_P1;SDS_P2;PMS_P1;PMS_P2;Temp;Humidity;BMP_temperature;BMP_pressure;BME280_temperature;BME280_humidity;BME280_pressure;Samples;Min_cycle;Max_cycle;Signal;HPM_P1;HPM_P2
2021/07/08 00:01:37;;;;;;;19.90;6.55;;;18.20;99.90;;;;;;4197516;28;20209;-87
2021/07/08 00:03:38;;;;;;;14.90;6.38;;;18.20;99.90;;;;;;4180371;28;20206;-87
2021/07/08 00:05:41;;;;;;;17.38;6.18;;;17.90;99.90;;;;;;4164386;28;20536;-87
2021/07/08 00:07:42;;;;;;;18.23;6.03;;;17.70;99.90;;;;;;4181182;28;20167;-87
2021/07/08 00:09:42;;;;;;;10.20;6.47;;;17.40;99.90;;;;;;4164651;28;20183;-88
2021/07/08 00:11:43;;;;;;;17.35;6.53;;;17.30;99.90;;;;;;4164554;28;20167;-86
2021/07/08 00:13:46;;;;;;;11.48;5.72;;;17.20;99.90;;;;;;4180645;28;20202;-87
2021/07/08 00:15:47;;;;;;;14.02;6.35;;;17.20;99.90;;;;;;4164233;28;20210;-87
2021/07/08 00:17:48;;;;;;;11.32;6.28;;;17.30;99.90;;;;;;4164233;28;20180;-87
2021/07/08 00:19:49;;;;;;;17.30;6.70;;;17.10;99.90;;;;;;4164513;28;20176;-87
2021/07/08 00:21:50;;;;;;;16.70;6.75;;;17.00;99.90;;;;;;4164365;28;20655;-86
2021/07/08 00:23:51;;;;;;;12.13;6.57;;;17.00;99.90;;;;;;4164342;28;20199;-87
2021/07/08 00:25:55;;;;;;;13.13;6.50;;;17.10;99.90;;;;;;4166738;28;20186;-87
2021/07/08 00:27:57;;;;;;;19.52;7.07;;;17.30;99.90;;;;;;4167804;28;20168;-87
2021/07/08 00:29:57;;;;;;;17.38;6.53;;;17.20;99.90;;;;;;4167478;28;20183;-87
2021/07/08 00:31:58;;;;;;;17.50;6.88;;;17.10;99.90;;;;;;4167707;28;20168;-88
2021/07/08 00:34:01;;;;;;;15.05;6.82;;;16.90;99.90;;;;;;4184034;28;20219;-91
2021/07/08 00:36:02;;;;;;;14.93;6.88;;;16.90;99.90;;;;;;4183857;28;20296;-87
2021/07/08 00:38:04;;;;;;;16.52;7.35;;;16.70;99.90;;;;;;4184118;28;20582;-87
2021/07/08 00:40:08;;;;;;;16.55;6.90;;;16.70;99.90;;;;;;4184143;28;20650;-87
2021/07/08 00:42:08;;;;;;;11.20;6.85;;;16.90;99.90;;;;;;4167516;28;20175;-87
2021/07/08 00:44:09;;;;;;;19.85;7.65;;;17.00;99.90;;;;;;4183996;28;20222;-93
2021/07/08 00:46:10;;;;;;;13.10;7.35;;;17.00;99.90;;;;;;4167355;28;20250;-86
2021/07/08 00:48:11;;;;;;;17.67;8.02;;;17.20;99.90;;;;;;4167390;28;20195;-86
2021/07/08 00:50:14;;;;;;;14.90;7.15;;;17.20;99.90;;;;;;4167289;28;20169;-86
2021/07/08 00:52:14;;;;;;;17.98;8.23;;;17.20;99.90;;;;;;4167164;28;20178;-92
2021/07/08 00:54:15;;;;;;;14.18;7.50;;;17.20;99.90;;;;;;4183880;28;20195;-88
2021/07/08 00:56:16;;;;;;;15.43;7.03;;;17.30;99.90;;;;;;4183903;28;20234;-87
2021/07/08 00:58:17;;;;;;;13.73;7.57;;;17.40;99.90;;;;;;4183724;28;20268;-87
2021/07/08 01:00:24;;;;;;;13.93;7.15;;;17.40;99.90;;;;;;4184228;28;20167;-88
2021/07/08 01:02:27;;;;;;;16.65;7.30;;;17.40;99.90;;;;;;4167177;28;20176;-87
2021/07/08 01:04:28;;;;;;;12.68;6.88;;;17.40;99.90;;;;;;4183441;28;20199;-87
2021/07/08 01:06:31;;;;;;;14.95;7.10;;;17.40;99.90;;;;;;4167164;28;20172;-87
2021/07/08 01:08:32;;;;;;;18.95;7.82;;;17.40;99.90;;;;;;4167276;28;20176;-87
2021/07/08 01:10:33;;;;;;;13.88;6.97;;;17.30;99.90;;;;;;4183945;28;20186;-92
2021/07/08 01:12:34;;;;;;;17.35;8.00;;;17.20;99.90;;;;;;4167113;28;20180;-87
2021/07/08 01:14:35;;;;;;;21.90;9.27;;;17.40;99.90;;;;;;4183697;28;20505;-86
2021/07/08 01:16:35;;;;;;;18.65;9.13;;;17.50;99.90;;;;;;4182934;28;20215;-87
2021/07/08 01:18:38;;;;;;;21.75;9.73;;;17.40;99.90;;;;;;4166998;28;20632;-87
2021/07/08 01:20:39;;;;;;;20.65;9.63;;;17.30;99.90;;;;;;4183251;28;20179;-87
2021/07/08 01:22:40;;;;;;;25.23;9.70;;;17.20;99.90;;;;;;4183359;28;20198;-86
2021/07/08 01:24:41;;;;;;;16.20;9.55;;;17.10;99.90;;;;;;4167187;28;20333;-87
2021/07/08 01:26:43;;;;;;;19.58;9.82;;;17.10;99.90;;;;;;4166829;28;20168;-87
2021/07/08 01:28:44;;;;;;;22.73;8.52;;;17.20;99.90;;;;;;4183389;28;20184;-87
2021/07/08 01:30:46;;;;;;;20.95;8.35;;;17.20;99.90;;;;;;4183359;28;20182;-87
2021/07/08 01:32:48;;;;;;;18.10;8.50;;;17.00;99.90;;;;;;4166395;28;20219;-86
2021/07/08 01:34:48;;;;;;;15.93;6.72;;;16.90;99.90;;;;;;4166667;28;20259;-86
2021/07/08 01:36:49;;;;;;;13.63;7.22;;;16.80;99.90;;;;;;4166691;28;20208;-87
2021/07/08 01:38:50;;;;;;;14.05;7.18;;;16.90;99.90;;;;;;4184406;28;20164;-87
2021/07/08 01:40:51;;;;;;;13.18;6.90;;;16.90;99.90;;;;;;4166552;28;20180;-88
2021/07/08 01:42:51;;;;;;;18.42;8.07;;;16.90;99.90;;;;;;4182930;28;20206;-87
2021/07/08 01:44:52;;;;;;;17.35;8.13;;;16.90;99.90;;;;;;4182954;28;20229;-87
2021/07/08 01:46:53;;;;;;;18.75;8.40;;;16.90;99.90;;;;;;4166291;28;20259;-87
2021/07/08 01:48:54;;;;;;;15.93;8.18;;;17.00;99.90;;;;;;4182996;28;20175;-87
2021/07/08 01:50:54;;;;;;;20.63;9.77;;;17.00;99.90;;;;;;4166337;28;20183;-86
2021/07/08 01:52:55;;;;;;;28.85;11.40;;;17.20;99.90;;;;;;4166354;28;20204;-86
2021/07/08 01:54:56;;;;;;;21.98;11.02;;;17.10;99.90;;;;;;4166299;28;20164;-86
2021/07/08 01:56:56;;;;;;;22.25;11.13;;;17.00;99.90;;;;;;4166084;28;20176;-86
2021/07/08 01:58:57;;;;;;;20.88;10.45;;;16.70;99.90;;;;;;4182824;28;20225;-86
2021/07/08 02:00:58;;;;;;;22.02;11.77;;;16.60;99.90;;;;;;4182807;28;20183;-86
2021/07/08 02:02:58;;;;;;;24.23;12.18;;;16.50;99.90;;;;;;4166059;28;20276;-87
2021/07/08 02:04:59;;;;;;;23.08;11.50;;;16.30;99.90;;;;;;4166318;28;20695;-87
2021/07/08 02:07:01;;;;;;;22.23;11.23;;;16.40;99.90;;;;;;4182559;28;20694;-87
2021/07/08 02:09:07;;;;;;;28.50;12.18;;;16.50;99.90;;;;;;4182827;28;20206;-86
2021/07/08 02:11:09;;;;;;;21.90;12.00;;;16.80;99.90;;;;;;4166324;28;20202;-87
2021/07/08 02:13:10;;;;;;;22.98;11.38;;;16.60;99.90;;;;;;4182752;28;20262;-86
2021/07/08 02:15:12;;;;;;;19.48;10.88;;;16.70;99.90;;;;;;4182588;28;20240;-87
2021/07/08 02:17:13;;;;;;;28.33;11.25;;;16.80;99.90;;;;;;4183235;28;20270;-87
2021/07/08 02:19:15;;;;;;;24.60;11.35;;;17.00;99.90;;;;;;4165984;28;20177;-87
2021/07/08 02:21:15;;;;;;;20.98;11.90;;;16.90;99.90;;;;;;4165989;28;20727;-93
2021/07/08 02:23:16;;;;;;;24.73;11.23;;;16.90;99.90;;;;;;4165660;28;20192;-87
2021/07/08 02:25:17;;;;;;;26.23;10.23;;;16.80;99.90;;;;;;4182462;28;20214;-86
2021/07/08 02:27:18;;;;;;;20.48;10.05;;;16.70;99.90;;;;;;4166007;28;20172;-87
2021/07/08 02:29:22;;;;;;;21.23;9.98;;;16.80;99.90;;;;;;4182407;28;20251;-88
2021/07/08 02:31:22;;;;;;;19.35;10.80;;;17.00;99.90;;;;;;4165916;28;20172;-87
2021/07/08 02:33:25;;;;;;;21.27;10.57;;;17.10;99.90;;;;;;4182335;28;20218;-87
2021/07/08 02:35:27;;;;;;;15.30;9.27;;;17.20;99.90;;;;;;4165547;28;20200;-87
2021/07/08 02:37:27;;;;;;;23.58;10.45;;;17.20;99.90;;;;;;4165724;28;20172;-87
2021/07/08 02:39:28;;;;;;;14.85;9.38;;;17.10;99.90;;;;;;4165826;28;20176;-87
2021/07/08 02:41:29;;;;;;;16.00;9.10;;;17.20;99.90;;;;;;4165753;28;20176;-88
2021/07/08 02:43:30;;;;;;;18.50;9.80;;;17.20;99.90;;;;;;4198575;28;20286;-87
2021/07/08 02:45:32;;;;;;;20.33;9.20;;;17.30;99.90;;;;;;4165354;28;20191;-91
2021/07/08 02:47:34;;;;;;;20.20;9.52;;;17.30;99.90;;;;;;4164978;28;20209;-87
2021/07/08 02:49:35;;;;;;;16.73;9.98;;;17.30;99.90;;;;;;4165510;28;20183;-87
2021/07/08 02:51:35;;;;;;;15.40;8.52;;;17.30;99.90;;;;;;4165439;28;20169;-86
2021/07/08 02:53:36;;;;;;;18.50;9.15;;;17.30;99.90;;;;;;4181988;28;20199;-87
2021/07/08 02:55:38;;;;;;;21.45;9.27;;;17.30;99.90;;;;;;4181750;28;20593;-87
2021/07/08 02:57:39;;;;;;;18.00;8.75;;;17.60;99.90;;;;;;4165283;28;20391;-88
2021/07/08 02:59:40;;;;;;;18.30;9.00;;;17.90;99.90;;;;;;4165528;28;20187;-87
2021/07/08 03:01:40;;;;;;;17.95;9.32;;;17.90;99.90;;;;;;4165412;28;20176;-87
2021/07/08 03:03:41;;;;;;;17.80;9.13;;;17.60;99.90;;;;;;4165116;28;20192;-87
2021/07/08 03:05:42;;;;;;;14.65;8.93;;;17.30;99.90;;;;;;4165285;28;20226;-87
2021/07/08 03:07:42;;;;;;;16.55;9.65;;;17.20;99.90;;;;;;4181684;28;20251;-87
2021/07/08 03:09:43;;;;;;;17.55;8.50;;;17.00;99.90;;;;;;4165173;28;20222;-86
2021/07/08 03:11:44;;;;;;;19.02;9.52;;;17.00;99.90;;;;;;4164947;28;20179;-87
2021/07/08 03:13:45;;;;;;;20.52;9.90;;;17.00;99.90;;;;;;4181383;28;20207;-88
2021/07/08 03:15:46;;;;;;;17.48;9.55;;;16.90;99.90;;;;;;4165077;28;20321;-86
2021/07/08 03:17:47;;;;;;;18.05;9.32;;;16.80;99.90;;;;;;4164722;28;20632;-87
2021/07/08 03:19:47;;;;;;;15.27;10.20;;;16.90;99.90;;;;;;4181381;28;20225;-86
2021/07/08 03:21:48;;;;;;;25.70;11.15;;;16.90;99.90;;;;;;4181144;28;20168;-87
2021/07/08 03:23:49;;;;;;;24.52;12.07;;;16.90;99.90;;;;;;4164967;28;20224;-87
2021/07/08 03:25:49;;;;;;;22.48;11.18;;;17.00;99.90;;;;;;4181342;28;20401;-86
2021/07/08 03:27:51;;;;;;;23.85;12.15;;;16.80;99.90;;;;;;4164999;28;20176;-87
2021/07/08 03:29:52;;;;;;;23.27;11.40;;;16.30;99.90;;;;;;4181536;28;20171;-86
2021/07/08 03:31:52;;;;;;;21.23;11.35;;;16.30;99.90;;;;;;4165055;28;20230;-87
2021/07/08 03:33:53;;;;;;;23.90;11.15;;;16.30;99.90;;;;;;4181065;28;20286;-86
2021/07/08 03:35:54;;;;;;;20.70;11.10;;;16.60;99.90;;;;;;4181288;28;20231;-86
2021/07/08 03:37:56;;;;;;;22.23;11.48;;;16.60;99.90;;;;;;4181239;28;20282;-86
2021/07/08 03:39:56;;;;;;;20.27;11.07;;;16.60;99.90;;;;;;4164763;28;20179;-92
2021/07/08 03:41:57;;;;;;;23.00;11.23;;;16.70;99.90;;;;;;4181090;28;20242;-87
2021/07/08 03:43:59;;;;;;;24.63;11.50;;;16.60;99.90;;;;;;4181197;28;20560;-87
2021/07/08 03:45:59;;;;;;;14.88;9.73;;;16.50;99.90;;;;;;4164615;28;20234;-92
2021/07/08 03:48:00;;;;;;;20.67;9.65;;;16.50;99.90;;;;;;4181000;28;20168;-87
2021/07/08 03:50:02;;;;;;;17.63;9.82;;;16.40;99.90;;;;;;4164516;28;20172;-94
2021/07/08 03:52:04;;;;;;;18.58;9.50;;;16.40;99.90;;;;;;4181045;28;20195;-87
2021/07/08 03:54:06;;;;;;;19.05;10.05;;;16.40;99.90;;;;;;4164554;28;20202;-87
2021/07/08 03:56:07;;;;;;;17.13;9.38;;;16.40;99.90;;;;;;4164672;28;20696;-87
2021/07/08 03:58:07;;;;;;;20.10;10.27;;;16.40;99.90;;;;;;4164578;28;20168;-87
2021/07/08 04:00:09;;;;;;;17.65;9.60;;;16.40;99.90;;;;;;4163682;28;20264;-87
2021/07/08 04:02:09;;;;;;;18.73;9.57;;;16.30;99.90;;;;;;4164684;28;20233;-87
2021/07/08 04:04:10;;;;;;;14.68;9.00;;;16.30;99.90;;;;;;4164296;28;20246;-87
2021/07/08 04:06:11;;;;;;;16.67;9.32;;;16.40;99.90;;;;;;4180906;28;20171;-87
2021/07/08 04:08:12;;;;;;;18.70;9.25;;;16.40;99.90;;;;;;4180957;28;20210;-87
2021/07/08 04:10:13;;;;;;;13.25;9.07;;;16.50;99.90;;;;;;4164634;28;20251;-86
2021/07/08 04:12:14;;;;;;;15.38;8.57;;;16.50;99.90;;;;;;4180990;28;20234;-86
2021/07/08 04:14:15;;;;;;;17.40;8.50;;;16.40;99.90;;;;;;4164468;28;20188;-87
2021/07/08 04:16:15;;;;;;;27.42;9.15;;;16.40;99.90;;;;;;4197388;28;20206;-87
2021/07/08 04:18:18;;;;;;;16.70;9.60;;;16.40;99.90;;;;;;4180934;28;20208;-87
2021/07/08 04:20:21;;;;;;;21.40;9.93;;;16.40;99.90;;;;;;4164521;28;20180;-88
2021/07/08 04:22:22;;;;;;;27.45;9.98;;;16.40;99.90;;;;;;4180905;28;20168;-86
2021/07/08 04:24:22;;;;;;;15.38;10.00;;;16.50;99.90;;;;;;4164252;28;20220;-86
2021/07/08 04:26:23;;;;;;;13.65;8.77;;;16.60;99.90;;;;;;4180315;28;20242;-87
2021/07/08 04:28:24;;;;;;;18.30;10.45;;;16.70;99.90;;;;;;4164078;28;20178;-87
2021/07/08 04:30:26;;;;;;;18.63;10.10;;;16.70;99.90;;;;;;4180917;28;20651;-86
2021/07/08 04:32:26;;;;;;;13.50;9.27;;;16.60;99.90;;;;;;4164566;28;20187;-87
2021/07/08 04:34:27;;;;;;;20.58;9.65;;;16.60;99.90;;;;;;4180691;28;20278;-87
2021/07/08 04:36:28;;;;;;;20.45;9.70;;;16.70;99.90;;;;;;4164370;28;20591;-87
2021/07/08 04:38:28;;;;;;;22.17;9.85;;;16.80;99.90;;;;;;4181856;28;20183;-87
2021/07/08 04:40:29;;;;;;;21.60;9.50;;;16.80;99.90;;;;;;4180667;28;20187;-88
2021/07/08 04:42:30;;;;;;;20.15;9.38;;;16.90;99.90;;;;;;4180472;28;20555;-87
2021/07/08 04:44:30;;;;;;;22.48;9.88;;;16.90;99.90;;;;;;4180621;28;20176;-86
2021/07/08 04:46:32;;;;;;;20.52;10.35;;;17.00;99.90;;;;;;4164039;28;20165;-87
2021/07/08 04:48:33;;;;;;;17.63;10.20;;;17.20;99.90;;;;;;4163880;28;20172;-88
2021/07/08 04:50:34;;;;;;;22.30;10.82;;;17.20;99.90;;;;;;4163926;28;20163;-86
2021/07/08 04:52:36;;;;;;;19.55;10.32;;;17.30;99.90;;;;;;4164184;28;20672;-87
2021/07/08 04:54:37;;;;;;;18.00;9.45;;;17.30;99.90;;;;;;4164158;28;20175;-86
2021/07/08 04:56:38;;;;;;;18.52;9.95;;;17.30;99.90;;;;;;4163978;28;20583;-86
2021/07/08 04:58:38;;;;;;;17.33;9.80;;;17.30;99.90;;;;;;4180539;28;20250;-87
2021/07/08 05:00:39;;;;;;;21.77;10.98;;;17.20;99.90;;;;;;4163985;28;20822;-86
2021/07/08 05:02:42;;;;;;;18.60;11.35;;;17.20;99.90;;;;;;4163749;28;20327;-87
2021/07/08 05:04:43;;;;;;;20.58;11.40;;;17.20;99.90;;;;;;4163830;28;20738;-87
2021/07/08 05:06:43;;;;;;;19.15;10.75;;;17.20;99.90;;;;;;4180129;28;20176;-87
2021/07/08 05:08:44;;;;;;;22.42;10.45;;;17.10;99.90;;;;;;4180460;28;20199;-87
2021/07/08 05:10:45;;;;;;;20.17;10.05;;;17.20;99.90;;;;;;4164376;28;20212;-86
2021/07/08 05:12:46;;;;;;;21.45;9.98;;;17.20;99.90;;;;;;4183347;28;20762;-87
2021/07/08 05:14:47;;;;;;;16.02;9.70;;;17.20;99.90;;;;;;4167028;28;20168;-87
2021/07/08 05:16:47;;;;;;;25.00;10.15;;;17.20;99.90;;;;;;4183441;28;20245;-87
2021/07/08 05:18:48;;;;;;;22.05;9.85;;;17.30;99.90;;;;;;4183283;28;20168;-87
2021/07/08 05:20:49;;;;;;;20.92;11.43;;;17.30;99.90;;;;;;4166899;28;20176;-86
2021/07/08 05:22:57;;;;;;;25.58;10.70;;;17.40;99.90;;;;;;4166978;28;20191;-87
2021/07/08 05:24:58;;;;;;;19.33;9.93;;;17.40;99.90;;;;;;4183153;28;20182;-87
2021/07/08 05:26:58;;;;;;;17.73;9.65;;;17.50;99.90;;;;;;4182990;28;20207;-88
2021/07/08 05:28:59;;;;;;;20.48;10.02;;;17.60;99.90;;;;;;4166724;28;20718;-87
2021/07/08 05:31:00;;;;;;;19.67;9.88;;;17.60;99.90;;;;;;4166575;28;20208;-87
2021/07/08 05:33:00;;;;;;;21.10;10.23;;;17.60;99.90;;;;;;4199755;28;20195;-92
2021/07/08 05:35:02;;;;;;;19.25;10.15;;;17.60;99.90;;;;;;4166815;28;20207;-88
2021/07/08 05:37:02;;;;;;;18.55;9.38;;;17.60;99.90;;;;;;4166685;28;20215;-94
2021/07/08 05:39:05;;;;;;;14.52;9.05;;;17.60;99.90;;;;;;4183321;28;20167;-87
2021/07/08 05:41:05;;;;;;;14.05;9.52;;;17.60;99.90;;;;;;4183451;28;20582;-87
2021/07/08 05:43:06;;;;;;;16.88;9.20;;;17.60;99.90;;;;;;4166534;28;20188;-87
2021/07/08 05:45:09;;;;;;;19.55;9.10;;;17.60;99.90;;;;;;4166843;28;20184;-87
2021/07/08 05:47:09;;;;;;;15.77;8.70;;;17.70;99.90;;;;;;4166690;28;20168;-87
2021/07/08 05:49:10;;;;;;;16.83;9.50;;;17.60;99.90;;;;;;4183275;28;20180;-87
2021/07/08 05:51:12;;;;;;;16.20;8.57;;;17.60;99.90;;;;;;4184151;28;20163;-87
2021/07/08 05:53:13;;;;;;;18.40;8.77;;;17.70;99.90;;;;;;4166400;28;20215;-87
2021/07/08 05:55:14;;;;;;;14.95;9.23;;;17.70;99.90;;;;;;4182901;28;20172;-89
2021/07/08 05:57:14;;;;;;;15.73;8.75;;;17.70;99.90;;;;;;4166397;28;20176;-87
2021/07/08 05:59:15;;;;;;;19.02;9.30;;;17.60;99.90;;;;;;4182885;28;20175;-88
2021/07/08 06:01:16;;;;;;;18.73;9.38;;;17.70;99.90;;;;;;4166508;28;20180;-87
2021/07/08 06:03:17;;;;;;;20.27;9.40;;;17.80;99.90;;;;;;4166155;28;20626;-87
2021/07/08 06:05:18;;;;;;;15.82;8.80;;;17.80;99.90;;;;;;4166092;28;20290;-87
2021/07/08 06:07:19;;;;;;;15.90;8.30;;;18.00;99.90;;;;;;4182611;28;20731;-87
2021/07/08 06:09:19;;;;;;;20.55;8.80;;;18.10;99.90;;;;;;4182890;28;20171;-88
2021/07/08 06:11:20;;;;;;;20.95;8.75;;;18.20;99.90;;;;;;4182752;28;20168;-93
2021/07/08 06:13:21;;;;;;;17.10;9.43;;;18.30;99.90;;;;;;4166146;28;20196;-88
2021/07/08 06:15:22;;;;;;;17.88;9.50;;;18.40;99.90;;;;;;4182655;28;20174;-88
2021/07/08 06:17:23;;;;;;;17.42;9.18;;;18.40;99.90;;;;;;4166037;28;20196;-87
2021/07/08 06:19:23;;;;;;;16.63;8.65;;;18.40;99.90;;;;;;4182516;28;20671;-86
2021/07/08 06:21:24;;;;;;;22.05;9.63;;;18.20;99.90;;;;;;4166091;28;20564;-87
2021/07/08 06:23:26;;;;;;;21.60;9.02;;;18.40;99.90;;;;;;4181636;28;20187;-86
2021/07/08 06:25:30;;;;;;;19.73;8.90;;;18.50;99.90;;;;;;4165964;28;20196;-87
2021/07/08 06:27:30;;;;;;;21.60;9.65;;;18.60;99.90;;;;;;4166010;28;20672;-87
2021/07/08 06:29:31;;;;;;;18.58;9.23;;;18.80;99.90;;;;;;4165721;28;20196;-87
2021/07/08 06:31:32;;;;;;;19.80;8.55;;;18.90;99.90;;;;;;4166027;28;20173;-87
2021/07/08 06:33:32;;;;;;;16.92;7.88;;;18.90;99.90;;;;;;4165598;28;20240;-86
2021/07/08 06:35:33;;;;;;;15.32;8.82;;;18.90;99.90;;;;;;4165547;28;20214;-87
2021/07/08 06:37:35;;;;;;;13.40;8.98;;;19.10;99.90;;;;;;4198904;28;20639;-87
2021/07/08 06:39:36;;;;;;;18.80;8.05;;;19.30;99.90;;;;;;4165818;28;20250;-87
2021/07/08 06:41:37;;;;;;;15.02;8.20;;;19.40;99.90;;;;;;4165415;28;20176;-87
2021/07/08 06:43:37;;;;;;;13.77;7.60;;;19.60;99.90;;;;;;4182062;28;20644;-87
2021/07/08 06:45:39;;;;;;;12.90;7.95;;;19.80;99.90;;;;;;4182268;28;20588;-87
2021/07/08 06:47:45;;;;;;;15.93;7.93;;;19.80;99.90;;;;;;4198404;28;20167;-87
2021/07/08 06:49:46;;;;;;;16.88;8.20;;;19.80;99.90;;;;;;4181986;28;20809;-86
2021/07/08 06:51:47;;;;;;;15.38;8.00;;;19.90;99.90;;;;;;4165314;28;20298;-87
2021/07/08 06:53:50;;;;;;;19.73;7.60;;;19.80;99.90;;;;;;4165214;28;20204;-87
2021/07/08 06:55:51;;;;;;;15.55;7.88;;;19.80;99.90;;;;;;4165456;28;20286;-87
2021/07/08 06:57:51;;;;;;;15.68;7.72;;;20.00;99.90;;;;;;4181954;28;20184;-86
2021/07/08 06:59:52;;;;;;;12.98;7.30;;;20.20;99.90;;;;;;4165350;28;20172;-86
2021/07/08 07:01:53;;;;;;;20.80;7.57;;;20.40;99.90;;;;;;4165074;28;20179;-89
2021/07/08 07:03:53;;;;;;;15.30;7.00;;;20.50;99.90;;;;;;4164994;28;20184;-92
2021/07/08 07:05:54;;;;;;;15.35;7.18;;;20.30;99.90;;;;;;4165311;28;20180;-88
2021/07/08 07:07:56;;;;;;;14.15;6.45;;;20.40;99.90;;;;;;4181671;28;20199;-86
2021/07/08 07:09:56;;;;;;;12.52;6.72;;;20.40;99.90;;;;;;4165202;28;20180;-86
2021/07/08 07:11:57;;;;;;;18.48;7.32;;;20.60;99.90;;;;;;4181544;28;20168;-87
2021/07/08 07:13:58;;;;;;;17.10;6.82;;;20.60;99.90;;;;;;4198152;28;20691;-86
2021/07/08 07:15:59;;;;;;;13.68;6.10;;;20.90;99.90;;;;;;4182611;28;20210;-87
2021/07/08 07:17:59;;;;;;;10.85;5.05;;;21.30;99.90;;;;;;4182309;28;20180;-87
2021/07/08 07:20:00;;;;;;;11.50;5.60;;;22.00;99.90;;;;;;4165035;28;20176;-86
2021/07/08 07:22:01;;;;;;;11.73;5.85;;;23.00;99.90;;;;;;4181357;28;20636;-87
2021/07/08 07:24:02;;;;;;;13.05;6.05;;;23.90;99.90;;;;;;4181660;28;20547;-92
2021/07/08 07:26:04;;;;;;;19.02;5.80;;;24.60;99.90;;;;;;4181387;28;20262;-87
2021/07/08 07:28:05;;;;;;;7.45;5.10;;;25.20;99.90;;;;;;4164886;28;20234;-86
2021/07/08 07:30:06;;;;;;;9.80;5.32;;;25.50;99.90;;;;;;4164481;28;20176;-92
2021/07/08 07:32:08;;;;;;;10.10;5.20;;;25.20;99.90;;;;;;4164813;28;20164;-87
2021/07/08 07:34:10;;;;;;;17.10;5.10;;;24.90;99.90;;;;;;4164369;28;20649;-87
2021/07/08 07:36:10;;;;;;;12.90;6.70;;;25.50;99.90;;;;;;4164874;28;20204;-86
2021/07/08 07:38:11;;;;;;;15.02;6.57;;;24.60;99.90;;;;;;4180881;28;20222;-87
2021/07/08 07:40:13;;;;;;;16.00;7.10;;;24.50;99.90;;;;;;4164744;28;20628;-86
2021/07/08 07:42:14;;;;;;;18.48;7.07;;;23.70;99.90;;;;;;4164678;28;20896;-86
2021/07/08 07:44:14;;;;;;;11.32;6.88;;;23.60;99.90;;;;;;4180804;28;20579;-86
2021/07/08 07:46:15;;;;;;;13.65;6.80;;;23.40;99.90;;;;;;4164355;28;20210;-92
2021/07/08 07:48:17;;;;;;;13.38;6.97;;;23.60;99.90;;;;;;4164541;28;20273;-87
2021/07/08 07:50:18;;;;;;;13.23;6.85;;;23.40;99.90;;;;;;4180807;28;20183;-86
2021/07/08 07:52:18;;;;;;;11.35;6.90;;;24.10;99.90;;;;;;4164299;28;20255;-86
2021/07/08 07:54:19;;;;;;;12.38;6.55;;;24.30;99.90;;;;;;4180969;28;20195;-87
2021/07/08 07:56:20;;;;;;;11.27;5.85;;;24.30;99.90;;;;;;4180771;28;20253;-86
2021/07/08 07:58:21;;;;;;;14.63;6.57;;;23.70;99.90;;;;;;4164184;28;20668;-87
2021/07/08 08:00:22;;;;;;;12.05;6.60;;;23.50;99.90;;;;;;4164447;28;20632;-85
2021/07/08 08:02:22;;;;;;;10.60;5.95;;;23.50;99.90;;;;;;4180863;28;20172;-86
2021/07/08 08:04:28;;;;;;;12.43;6.28;;;24.10;99.90;;;;;;4164115;28;20210;-87
2021/07/08 08:08:48;;;;;;;12.02;5.97;;;23.80;99.90;;;;;;4180879;28;20167;-86
2021/07/08 08:10:50;;;;;;;15.27;6.20;;;23.70;99.90;;;;;;4180851;28;20551;-92
2021/07/08 08:12:50;;;;;;;11.35;6.07;;;24.00;99.90;;;;;;4180847;28;20199;-87
2021/07/08 08:14:53;;;;;;;12.40;5.93;;;24.10;99.90;;;;;;4164311;28;20172;-92
2021/07/08 08:16:54;;;;;;;12.05;5.88;;;23.60;99.90;;;;;;4164303;28;20220;-86
2021/07/08 08:18:55;;;;;;;15.43;6.18;;;23.50;99.90;;;;;;4164164;28;20186;-86
2021/07/08 08:20:55;;;;;;;11.32;5.78;;;24.20;99.90;;;;;;4164142;28;20180;-87
2021/07/08 08:22:57;;;;;;;13.25;5.30;;;24.90;99.90;;;;;;4180693;28;20306;-86
2021/07/08 08:24:58;;;;;;;11.98;5.45;;;24.80;99.90;;;;;;4180470;28;20217;-86
2021/07/08 08:26:59;;;;;;;10.05;5.43;;;25.80;99.90;;;;;;4164311;28;20183;-87
2021/07/08 08:29:00;;;;;;;11.80;5.00;;;27.00;99.90;;;;;;4180462;28;20266;-87
2021/07/08 08:31:00;;;;;;;10.00;4.97;;;27.90;99.90;;;;;;4164152;28;20257;-86
2021/07/08 08:33:01;;;;;;;12.95;4.53;;;27.50;99.90;;;;;;4163698;28;20835;-85
2021/07/08 08:35:03;;;;;;;14.25;5.05;;;27.90;99.90;;;;;;4180470;28;20266;-86
2021/07/08 08:37:04;;;;;;;11.07;4.72;;;28.50;99.90;;;;;;4180291;28;20714;-91
2021/07/08 08:39:05;;;;;;;12.30;5.05;;;28.50;99.90;;;;;;4180460;28;20179;-85
2021/07/08 08:41:05;;;;;;;9.27;3.97;;;28.10;99.90;;;;;;4180633;28;20190;-84
2021/07/08 08:43:06;;;;;;;13.57;4.00;;;28.60;99.90;;;;;;4163516;28;20199;-85
2021/07/08 08:45:11;;;;;;;9.38;3.90;;;28.80;99.90;;;;;;4180177;28;20237;-84
2021/07/08 08:47:12;;;;;;;9.82;4.22;;;29.10;99.90;;;;;;4166579;28;20204;-85
2021/07/08 08:49:13;;;;;;;7.28;4.20;;;30.70;99.90;;;;;;4183555;28;20532;-86
2021/07/08 08:51:14;;;;;;;8.48;4.32;;;32.10;99.90;;;;;;4167488;28;20164;-87
2021/07/08 08:53:16;;;;;;;12.40;5.75;;;33.00;99.90;;;;;;4185014;28;20199;-90
2021/07/08 08:55:18;;;;;;;9.50;4.53;;;33.20;99.90;;;;;;4167575;28;20174;-90
2021/07/08 08:57:18;;;;;;;12.30;5.07;;;33.30;99.90;;;;;;4167699;28;20233;-89
2021/07/08 08:59:19;;;;;;;9.93;4.30;;;34.00;99.90;;;;;;4184201;28;20175;-89
2021/07/08 09:01:20;;;;;;;9.80;4.80;;;34.20;99.90;;;;;;4167569;28;20175;-90
2021/07/08 09:03:25;;;;;;;10.18;4.38;;;33.80;99.90;;;;;;4167305;28;20281;-88
2021/07/08 09:05:26;;;;;;;10.25;3.97;;;33.60;99.90;;;;;;4167220;28;20179;-88
2021/07/08 09:07:31;;;;;;;8.40;4.45;;;32.50;99.90;;;;;;4167540;28;20180;-89
2021/07/08 09:09:32;;;;;;;9.82;5.15;;;32.00;99.90;;;;;;4183895;28;20588;-91
2021/07/08 09:11:34;;;;;;;6.88;4.15;;;31.90;99.90;;;;;;4167311;28;20179;-89
2021/07/08 09:13:54;;;;;;;11.90;4.35;;;32.50;99.90;;;;;;4167077;28;20188;-89
2021/07/08 09:16:12;;;;;;;11.95;4.15;;;32.10;99.90;;;;;;4183878;28;20171;-90
2021/07/08 09:18:13;;;;;;;9.27;3.50;;;31.10;99.90;;;;;;4167379;28;20210;-89
2021/07/08 09:20:17;;;;;;;8.75;3.42;;;30.90;99.90;;;;;;4167336;28;20513;-90
2021/07/08 09:22:31;;;;;;;6.60;4.05;;;31.80;99.90;;;;;;4183767;28;20631;-89
2021/07/08 09:24:34;;;;;;;10.50;3.65;;;32.30;99.90;;;;;;4167292;28;20179;-89
2021/07/08 09:26:37;;;;;;;8.50;3.38;;;32.40;99.90;;;;;;4166960;28;20211;-89
2021/07/08 09:28:38;;;;;;;12.27;3.30;;;32.60;99.90;;;;;;4166976;28;20179;-90
2021/07/08 09:30:39;;;;;;;9.25;3.58;;;33.20;99.90;;;;;;4183586;28;20282;-88
2021/07/08 09:32:40;;;;;;;5.82;2.45;;;32.80;99.90;;;;;;4183452;28;20179;-88
2021/07/08 09:34:45;;;;;;;9.55;2.80;;;32.80;99.90;;;;;;4167155;28;20159;-90
2021/07/08 09:36:49;;;;;;;7.95;3.60;;;32.40;99.90;;;;;;4183794;28;20167;-90
2021/07/08 09:38:50;;;;;;;12.55;3.78;;;32.40;99.90;;;;;;4183519;28;20166;-87
2021/07/08 09:41:19;;;;;;;11.68;4.18;;;32.20;99.90;;;;;;4166836;28;20175;-89
2021/07/08 09:43:34;;;;;;;7.72;3.47;;;32.60;99.90;;;;;;4183203;28;20187;-91
2021/07/08 09:45:45;;;;;;;7.03;3.17;;;32.60;99.90;;;;;;4166765;28;20703;-90
2021/07/08 09:47:47;;;;;;;6.43;2.47;;;31.10;99.90;;;;;;4183340;28;20206;-88
2021/07/08 09:49:48;;;;;;;9.80;3.75;;;31.10;99.90;;;;;;4166845;28;20215;-90
2021/07/08 09:51:49;;;;;;;5.93;2.45;;;31.50;99.90;;;;;;4166696;28;20167;-89
2021/07/08 09:53:51;;;;;;;7.75;2.67;;;32.30;99.90;;;;;;4166540;28;20199;-89
2021/07/08 09:58:16;;;;;;;6.20;2.60;;;31.80;99.90;;;;;;4181562;28;20179;-89
2021/07/08 10:00:20;;;;;;;9.32;2.80;;;31.90;99.90;;;;;;4166671;28;20174;-89
2021/07/08 10:02:32;;;;;;;6.72;2.40;;;32.50;99.90;;;;;;4166666;28;20628;-90
2021/07/08 10:04:33;;;;;;;7.40;2.33;;;31.50;99.90;;;;;;4166596;28;20171;-90
2021/07/08 10:06:36;;;;;;;5.30;1.98;;;30.80;99.90;;;;;;4182770;28;20249;-88
2021/07/08 10:08:39;;;;;;;5.53;1.90;;;30.60;99.90;;;;;;4182783;28;20206;-89
2021/07/08 10:10:41;;;;;;;6.75;2.10;;;30.80;99.90;;;;;;4166591;28;20263;-91
2021/07/08 10:12:45;;;;;;;6.28;2.42;;;32.20;99.90;;;;;;4166509;28;20164;-89
2021/07/08 10:14:48;;;;;;;7.78;1.52;;;32.40;99.90;;;;;;4166647;28;20600;-89
2021/07/08 10:16:51;;;;;;;5.90;2.05;;;31.90;99.90;;;;;;4182904;28;20195;-88
2021/07/08 10:18:57;;;;;;;5.53;1.85;;;31.10;99.90;;;;;;4166335;28;20759;-89
2021/07/08 10:20:59;;;;;;;4.63;1.90;;;31.10;99.90;;;;;;4182796;28;20171;-90
2021/07/08 10:23:01;;;;;;;4.57;1.80;;;31.70;99.90;;;;;;4166290;28;20192;-88
2021/07/08 10:25:03;;;;;;;3.63;1.40;;;32.30;99.90;;;;;;4182793;28;20163;-89
2021/07/08 10:27:06;;;;;;;3.72;1.30;;;33.10;99.90;;;;;;4166248;28;20734;-91
2021/07/08 10:29:09;;;;;;;4.03;1.63;;;32.70;99.90;;;;;;4166189;28;20268;-89